首页
METAR-TAF:

METAR-TAF

机场 :

哈爾科夫國際機場

哈爾科夫, 乌克兰

纬度: 49-58N, 经度: 036-08E, 海拔: 154米

当前天气观测

该预报发布于10分钟前的06:00 UTC
风速6节,风向东南
温度 11°C
湿度 87%
气压 1023 hPa
能见度10公里或以上
1500米以下无云,无积雨云

METAR: UKHH 170600Z 14003MPS CAVOK 11/09 Q1023 R07/0///81 NOSIG

时间: 09:10 (06:10 UTC)

预报

该预报发布于1小时和4分钟前的05:06 UTC
预报有效从17日的 06点(UTC)到 18日的 06点(UTC)
风速10节,风向东南
能见度10公里或以上
散云层高于3000英尺
成为
从 17日的 18点(UTC)到 17日的 20点(UTC)
风速4节,风向
能見度: 2100
轻雾
几率 40% :
短暂存在
从 17日的 20点(UTC)到 17日的 24点(UTC)
能見度: 0400
层高于200英尺
成为
从 18日的 00点(UTC)到 18日的 01点(UTC)
能見度: 0400
散云层高于200英尺

TAF: UKHH 170506Z 1706/1806 14005MPS 9999 SCT030 BECMG 1718/1720 19002MPS 2100 BR PROB40 TEMPO 1720/1724 0400 FG VV002 BECMG 1800/1801 0400 FG SCT002

超过4000个机场的气象观测和天气预报(METAR&TAF报告)。

可查询的气象台以黄色和红色小点在地图上表示。

将鼠标移到小点上方,可查看气象台名称。

然后点击查看天气观测和预报。

如需切换地图:点击带黑十字的绿色按钮放大地图;点击带横线的绿色按钮缩小地图;或者点击绿色箭头查看邻近地区的地图。


METAR-TAF: